Terminal Aerodrome Forecast
Issued by NWS

Home | Current Version | Previous Version | Text Only | Print | Product List | Glossary On
Versions: 1 2 3 4 5 6 7 8 9 10 11 12 13 14 15 16 17 18 19 20 21
000
FTUS43 KTOP 251055 AAD
TAFFOE
TAF AMD
KFOE 251055Z 2511/2606 02005KT 6SM -RA VCTS BKN004CB
      TEMPO 2511/2514 1SM TSRA BKN004CB
     FM251400 02006KT 6SM -SHRA VCTS BKN018CB
     FM251700 03006KT P6SM BKN030
     FM260000 06005KT P6SM VCTS OVC050CB=

USA.gov is the U.S. government's official web portal to all federal, state and local government web resources and services.